sensor_id;sensor_type;location;lat;lon;timestamp;pressure;altitude;pressure_sealevel;temperature;humidity
41515;BME280;27247;48.020;16.720;2023-01-04T00:02:02;101369.13;;;5.48;100.00
41515;BME280;27247;48.020;16.720;2023-01-04T00:06:15;101360.03;;;5.52;100.00
41515;BME280;27247;48.020;16.720;2023-01-04T00:10:25;101359.59;;;5.58;100.00
41515;BME280;27247;48.020;16.720;2023-01-04T00:14:35;101360.75;;;5.67;100.00
41515;BME280;27247;48.020;16.720;2023-01-04T00:18:46;101358.97;;;5.67;100.00
41515;BME280;27247;48.020;16.720;2023-01-04T00:22:57;101357.38;;;5.65;100.00
41515;BME280;27247;48.020;16.720;2023-01-04T00:27:08;101351.44;;;5.61;100.00
41515;BME280;27247;48.020;16.720;2023-01-04T00:31:19;101354.72;;;5.52;100.00
41515;BME280;27247;48.020;16.720;2023-01-04T00:35:29;101348.69;;;5.50;100.00
41515;BME280;27247;48.020;16.720;2023-01-04T00:39:40;101360.53;;;5.44;100.00
41515;BME280;27247;48.020;16.720;2023-01-04T00:43:50;101346.88;;;5.38;100.00
41515;BME280;27247;48.020;16.720;2023-01-04T00:48:00;101353.00;;;5.26;100.00
41515;BME280;27247;48.020;16.720;2023-01-04T00:52:11;101361.16;;;5.23;100.00
41515;BME280;27247;48.020;16.720;2023-01-04T00:56:21;101364.50;;;5.12;100.00
41515;BME280;27247;48.020;16.720;2023-01-04T01:00:32;101375.91;;;5.27;100.00
41515;BME280;27247;48.020;16.720;2023-01-04T01:04:43;101374.06;;;5.14;100.00
41515;BME280;27247;48.020;16.720;2023-01-04T01:08:53;101377.84;;;5.10;100.00
41515;BME280;27247;48.020;16.720;2023-01-04T01:13:04;101377.31;;;5.05;100.00
41515;BME280;27247;48.020;16.720;2023-01-04T01:17:14;101382.81;;;5.02;100.00
41515;BME280;27247;48.020;16.720;2023-01-04T01:21:26;101379.81;;;4.94;100.00
41515;BME280;27247;48.020;16.720;2023-01-04T01:25:37;101386.69;;;4.84;100.00
41515;BME280;27247;48.020;16.720;2023-01-04T01:29:47;101384.44;;;4.78;100.00
41515;BME280;27247;48.020;16.720;2023-01-04T01:34:00;101387.09;;;4.78;100.00
41515;BME280;27247;48.020;16.720;2023-01-04T01:38:10;101383.09;;;4.85;100.00
41515;BME280;27247;48.020;16.720;2023-01-04T01:42:21;101388.72;;;4.93;100.00
41515;BME280;27247;48.020;16.720;2023-01-04T01:46:51;101395.19;;;4.89;100.00
41515;BME280;27247;48.020;16.720;2023-01-04T01:51:03;101390.13;;;4.99;100.00
41515;BME280;27247;48.020;16.720;2023-01-04T01:55:14;101382.72;;;5.04;100.00
41515;BME280;27247;48.020;16.720;2023-01-04T01:59:27;101371.88;;;4.94;100.00
41515;BME280;27247;48.020;16.720;2023-01-04T02:03:41;101373.97;;;4.89;100.00
41515;BME280;27247;48.020;16.720;2023-01-04T02:07:52;101363.84;;;4.96;100.00
41515;BME280;27247;48.020;16.720;2023-01-04T02:12:03;101372.63;;;4.96;100.00
41515;BME280;27247;48.020;16.720;2023-01-04T02:20:40;101362.09;;;4.82;100.00
41515;BME280;27247;48.020;16.720;2023-01-04T02:29:42;101363.00;;;4.68;100.00
41515;BME280;27247;48.020;16.720;2023-01-04T02:34:04;101367.84;;;4.62;100.00
41515;BME280;27247;48.020;16.720;2023-01-04T02:38:24;101365.31;;;4.60;100.00
41515;BME280;27247;48.020;16.720;2023-01-04T02:47:26;101366.81;;;4.23;100.00
41515;BME280;27247;48.020;16.720;2023-01-04T02:51:56;101355.75;;;4.02;100.00
41515;BME280;27247;48.020;16.720;2023-01-04T02:56:23;101352.47;;;3.84;100.00
41515;BME280;27247;48.020;16.720;2023-01-04T03:01:26;101361.16;;;3.72;100.00
41515;BME280;27247;48.020;16.720;2023-01-04T03:06:01;101360.22;;;3.59;100.00
41515;BME280;27247;48.020;16.720;2023-01-04T03:14:52;101343.13;;;3.50;100.00
41515;BME280;27247;48.020;16.720;2023-01-04T03:19:05;101338.50;;;3.54;100.00
41515;BME280;27247;48.020;16.720;2023-01-04T03:23:20;101332.84;;;3.46;100.00
41515;BME280;27247;48.020;16.720;2023-01-04T03:27:53;101338.78;;;3.49;100.00
41515;BME280;27247;48.020;16.720;2023-01-04T03:37:24;101322.66;;;3.54;100.00
41515;BME280;27247;48.020;16.720;2023-01-04T03:41:47;101319.16;;;3.53;100.00
41515;BME280;27247;48.020;16.720;2023-01-04T03:51:09;101310.66;;;3.34;100.00
41515;BME280;27247;48.020;16.720;2023-01-04T03:55:26;101317.25;;;3.27;100.00
41515;BME280;27247;48.020;16.720;2023-01-04T03:59:43;101316.13;;;3.01;100.00
41515;BME280;27247;48.020;16.720;2023-01-04T04:03:55;101321.19;;;2.60;100.00
41515;BME280;27247;48.020;16.720;2023-01-04T04:08:24;101322.56;;;2.51;100.00
41515;BME280;27247;48.020;16.720;2023-01-04T04:12:37;101333.66;;;2.27;100.00
41515;BME280;27247;48.020;16.720;2023-01-04T04:16:47;101327.44;;;2.28;100.00
41515;BME280;27247;48.020;16.720;2023-01-04T04:20:57;101331.19;;;2.39;100.00
41515;BME280;27247;48.020;16.720;2023-01-04T04:25:08;101323.94;;;2.43;100.00
41515;BME280;27247;48.020;16.720;2023-01-04T04:29:19;101325.00;;;2.70;100.00
41515;BME280;27247;48.020;16.720;2023-01-04T04:33:30;101324.91;;;2.72;100.00
41515;BME280;27247;48.020;16.720;2023-01-04T04:37:40;101321.81;;;2.49;100.00
41515;BME280;27247;48.020;16.720;2023-01-04T04:41:50;101320.72;;;2.38;100.00
41515;BME280;27247;48.020;16.720;2023-01-04T04:46:01;101321.75;;;2.35;100.00
41515;BME280;27247;48.020;16.720;2023-01-04T04:50:12;101322.69;;;2.18;100.00
41515;BME280;27247;48.020;16.720;2023-01-04T04:54:22;101318.78;;;2.10;100.00
41515;BME280;27247;48.020;16.720;2023-01-04T04:58:33;101312.53;;;1.95;100.00
41515;BME280;27247;48.020;16.720;2023-01-04T05:02:43;101311.91;;;1.74;100.00
41515;BME280;27247;48.020;16.720;2023-01-04T05:06:53;101311.47;;;1.66;100.00
41515;BME280;27247;48.020;16.720;2023-01-04T05:11:05;101310.94;;;1.44;100.00
41515;BME280;27247;48.020;16.720;2023-01-04T05:15:16;101307.31;;;1.29;100.00
41515;BME280;27247;48.020;16.720;2023-01-04T05:19:26;101311.66;;;1.30;100.00
41515;BME280;27247;48.020;16.720;2023-01-04T05:23:37;101303.50;;;1.35;100.00
41515;BME280;27247;48.020;16.720;2023-01-04T05:27:47;101304.91;;;1.24;100.00
41515;BME280;27247;48.020;16.720;2023-01-04T05:31:58;101306.09;;;1.19;100.00
41515;BME280;27247;48.020;16.720;2023-01-04T05:36:08;101305.25;;;1.18;100.00
41515;BME280;27247;48.020;16.720;2023-01-04T05:40:19;101311.34;;;1.02;100.00
41515;BME280;27247;48.020;16.720;2023-01-04T05:44:30;101320.88;;;0.87;100.00
41515;BME280;27247;48.020;16.720;2023-01-04T05:48:40;101304.53;;;0.80;100.00
41515;BME280;27247;48.020;16.720;2023-01-04T05:52:51;101305.53;;;0.95;100.00
41515;BME280;27247;48.020;16.720;2023-01-04T05:57:02;101297.50;;;0.98;100.00
41515;BME280;27247;48.020;16.720;2023-01-04T06:01:12;101302.25;;;1.09;100.00
41515;BME280;27247;48.020;16.720;2023-01-04T06:05:24;101299.53;;;1.10;100.00
41515;BME280;27247;48.020;16.720;2023-01-04T06:09:34;101294.09;;;1.13;100.00
41515;BME280;27247;48.020;16.720;2023-01-04T06:13:44;101305.53;;;0.95;100.00
41515;BME280;27247;48.020;16.720;2023-01-04T06:17:55;101306.84;;;1.04;100.00
41515;BME280;27247;48.020;16.720;2023-01-04T06:22:06;101307.78;;;0.85;100.00
41515;BME280;27247;48.020;16.720;2023-01-04T06:26:16;101307.72;;;0.70;100.00
41515;BME280;27247;48.020;16.720;2023-01-04T06:30:26;101307.16;;;0.63;100.00
41515;BME280;27247;48.020;16.720;2023-01-04T06:34:38;101301.59;;;0.69;100.00
41515;BME280;27247;48.020;16.720;2023-01-04T06:38:48;101304.84;;;0.57;100.00
41515;BME280;27247;48.020;16.720;2023-01-04T06:42:58;101298.09;;;0.51;100.00
41515;BME280;27247;48.020;16.720;2023-01-04T06:47:09;101281.16;;;0.40;100.00
41515;BME280;27247;48.020;16.720;2023-01-04T06:51:24;101267.84;;;0.25;100.00
41515;BME280;27247;48.020;16.720;2023-01-04T06:55:34;101294.19;;;-0.33;100.00
41515;BME280;27247;48.020;16.720;2023-01-04T06:59:45;101305.56;;;-0.32;100.00
41515;BME280;27247;48.020;16.720;2023-01-04T07:03:55;101293.13;;;-0.10;100.00
41515;BME280;27247;48.020;16.720;2023-01-04T07:08:05;101289.97;;;0.03;100.00
41515;BME280;27247;48.020;16.720;2023-01-04T07:12:16;101290.38;;;0.12;100.00
41515;BME280;27247;48.020;16.720;2023-01-04T07:16:26;101299.75;;;0.18;100.00
41515;BME280;27247;48.020;16.720;2023-01-04T07:20:37;101292.97;;;0.31;100.00
41515;BME280;27247;48.020;16.720;2023-01-04T07:24:47;101288.59;;;0.49;100.00
41515;BME280;27247;48.020;16.720;2023-01-04T07:28:58;101286.34;;;0.41;100.00
41515;BME280;27247;48.020;16.720;2023-01-04T07:38:33;101293.16;;;0.09;100.00
41515;BME280;27247;48.020;16.720;2023-01-04T07:42:52;101298.13;;;0.15;100.00
41515;BME280;27247;48.020;16.720;2023-01-04T07:47:03;101295.81;;;0.26;100.00
41515;BME280;27247;48.020;16.720;2023-01-04T07:51:13;101287.53;;;0.17;100.00
41515;BME280;27247;48.020;16.720;2023-01-04T07:55:23;101284.00;;;0.35;100.00
41515;BME280;27247;48.020;16.720;2023-01-04T07:59:34;101275.00;;;0.22;100.00
41515;BME280;27247;48.020;16.720;2023-01-04T08:03:45;101283.63;;;0.43;100.00
41515;BME280;27247;48.020;16.720;2023-01-04T08:07:55;101282.78;;;0.59;100.00
41515;BME280;27247;48.020;16.720;2023-01-04T08:12:06;101286.50;;;0.73;100.00
41515;BME280;27247;48.020;16.720;2023-01-04T08:16:22;101282.72;;;0.78;100.00
41515;BME280;27247;48.020;16.720;2023-01-04T08:20:34;101281.09;;;0.93;100.00
41515;BME280;27247;48.020;16.720;2023-01-04T08:24:44;101276.84;;;1.08;100.00
41515;BME280;27247;48.020;16.720;2023-01-04T08:28:55;101254.03;;;1.24;100.00
41515;BME280;27247;48.020;16.720;2023-01-04T08:33:14;101251.41;;;1.24;100.00
41515;BME280;27247;48.020;16.720;2023-01-04T08:37:25;101249.28;;;1.15;100.00
41515;BME280;27247;48.020;16.720;2023-01-04T08:41:35;101243.84;;;1.18;100.00
41515;BME280;27247;48.020;16.720;2023-01-04T08:45:59;101243.97;;;1.32;100.00
41515;BME280;27247;48.020;16.720;2023-01-04T08:50:10;101237.19;;;1.44;100.00
41515;BME280;27247;48.020;16.720;2023-01-04T08:54:20;101251.13;;;1.62;100.00
41515;BME280;27247;48.020;16.720;2023-01-04T08:58:33;101237.47;;;1.86;100.00
41515;BME280;27247;48.020;16.720;2023-01-04T09:02:43;101220.53;;;2.22;100.00
41515;BME280;27247;48.020;16.720;2023-01-04T09:06:54;101208.38;;;2.49;100.00
41515;BME280;27247;48.020;16.720;2023-01-04T09:11:06;101210.31;;;2.90;100.00
41515;BME280;27247;48.020;16.720;2023-01-04T09:15:17;101204.31;;;3.45;100.00
41515;BME280;27247;48.020;16.720;2023-01-04T09:19:28;101198.81;;;3.89;100.00
41515;BME280;27247;48.020;16.720;2023-01-04T09:23:38;101191.00;;;4.54;100.00
41515;BME280;27247;48.020;16.720;2023-01-04T09:27:49;101186.25;;;5.10;100.00
41515;BME280;27247;48.020;16.720;2023-01-04T09:31:59;101186.97;;;5.50;100.00
41515;BME280;27247;48.020;16.720;2023-01-04T09:36:13;101188.50;;;6.02;100.00
41515;BME280;27247;48.020;16.720;2023-01-04T09:40:30;101173.63;;;6.47;100.00
41515;BME280;27247;48.020;16.720;2023-01-04T09:49:23;101148.00;;;7.26;100.00
41515;BME280;27247;48.020;16.720;2023-01-04T09:53:43;101140.47;;;7.64;100.00
41515;BME280;27247;48.020;16.720;2023-01-04T09:58:01;101125.63;;;8.15;96.74
41515;BME280;27247;48.020;16.720;2023-01-04T10:02:32;101120.78;;;8.52;89.85
41515;BME280;27247;48.020;16.720;2023-01-04T10:06:45;101115.22;;;8.85;88.69
41515;BME280;27247;48.020;16.720;2023-01-04T10:15:42;101105.25;;;9.27;83.11
41515;BME280;27247;48.020;16.720;2023-01-04T10:38:32;101062.69;;;9.66;87.14
41515;BME280;27247;48.020;16.720;2023-01-04T10:51:11;101045.34;;;10.18;87.04
41515;BME280;27247;48.020;16.720;2023-01-04T10:55:41;101041.44;;;10.22;86.27
41515;BME280;27247;48.020;16.720;2023-01-04T11:00:00;101035.25;;;10.41;86.69
41515;BME280;27247;48.020;16.720;2023-01-04T11:08:41;101021.38;;;10.65;86.27
41515;BME280;27247;48.020;16.720;2023-01-04T11:12:52;101019.41;;;10.95;86.86
41515;BME280;27247;48.020;16.720;2023-01-04T11:17:03;101012.91;;;10.97;85.00
41515;BME280;27247;48.020;16.720;2023-01-04T11:21:19;101002.94;;;11.17;86.22
41515;BME280;27247;48.020;16.720;2023-01-04T11:25:36;100990.09;;;11.20;85.32
41515;BME280;27247;48.020;16.720;2023-01-04T11:30:03;100989.34;;;11.28;84.44
41515;BME280;27247;48.020;16.720;2023-01-04T11:34:14;100980.09;;;11.40;83.40
41515;BME280;27247;48.020;16.720;2023-01-04T11:38:27;100971.28;;;11.12;82.38
41515;BME280;27247;48.020;16.720;2023-01-04T11:42:38;100971.59;;;11.09;81.90
41515;BME280;27247;48.020;16.720;2023-01-04T11:47:17;100952.50;;;11.40;82.77
41515;BME280;27247;48.020;16.720;2023-01-04T11:55:39;100947.94;;;11.50;83.13
41515;BME280;27247;48.020;16.720;2023-01-04T12:00:13;100935.06;;;11.54;82.46
41515;BME280;27247;48.020;16.720;2023-01-04T12:04:25;100931.63;;;11.61;80.45
41515;BME280;27247;48.020;16.720;2023-01-04T12:08:36;100931.63;;;12.05;79.76
41515;BME280;27247;48.020;16.720;2023-01-04T12:12:47;100918.16;;;12.49;80.02
41515;BME280;27247;48.020;16.720;2023-01-04T12:17:04;100908.19;;;12.83;79.04
41515;BME280;27247;48.020;16.720;2023-01-04T12:21:23;100901.16;;;12.90;78.69
41515;BME280;27247;48.020;16.720;2023-01-04T12:35:00;100877.59;;;13.26;78.40
41515;BME280;27247;48.020;16.720;2023-01-04T12:56:18;100830.94;;;12.95;78.69
41515;BME280;27247;48.020;16.720;2023-01-04T13:05:34;100820.22;;;13.19;79.08
41515;BME280;27247;48.020;16.720;2023-01-04T13:09:50;100821.19;;;13.10;77.31
41515;BME280;27247;48.020;16.720;2023-01-04T13:14:07;100807.44;;;13.13;77.64
41515;BME280;27247;48.020;16.720;2023-01-04T13:18:39;100822.38;;;13.48;76.31
41515;BME280;27247;48.020;16.720;2023-01-04T13:22:56;100809.31;;;13.37;76.25
41515;BME280;27247;48.020;16.720;2023-01-04T13:27:21;100798.38;;;13.14;76.37
41515;BME280;27247;48.020;16.720;2023-01-04T13:31:49;100792.34;;;13.04;76.96
41515;BME280;27247;48.020;16.720;2023-01-04T13:36:08;100788.66;;;12.97;76.22
41515;BME280;27247;48.020;16.720;2023-01-04T13:40:24;100799.91;;;13.33;77.39
41515;BME280;27247;48.020;16.720;2023-01-04T13:49:03;100758.88;;;13.80;74.54
41515;BME280;27247;48.020;16.720;2023-01-04T13:53:25;100765.09;;;13.80;76.06
41515;BME280;27247;48.020;16.720;2023-01-04T13:57:37;100771.03;;;13.43;75.90
41515;BME280;27247;48.020;16.720;2023-01-04T14:01:48;100765.69;;;12.94;77.49
41515;BME280;27247;48.020;16.720;2023-01-04T14:06:40;100761.84;;;12.97;77.59
41515;BME280;27247;48.020;16.720;2023-01-04T14:10:49;100758.97;;;12.50;78.62
41515;BME280;27247;48.020;16.720;2023-01-04T14:19:40;100750.81;;;12.09;80.54
41515;BME280;27247;48.020;16.720;2023-01-04T14:23:51;100736.91;;;12.13;81.11
41515;BME280;27247;48.020;16.720;2023-01-04T14:28:24;100723.97;;;11.93;82.12
41515;BME280;27247;48.020;16.720;2023-01-04T14:32:38;100725.34;;;11.37;83.21
41515;BME280;27247;48.020;16.720;2023-01-04T14:36:48;100723.44;;;11.03;84.22
41515;BME280;27247;48.020;16.720;2023-01-04T14:41:30;100717.47;;;10.66;85.71
41515;BME280;27247;48.020;16.720;2023-01-04T14:45:39;100704.34;;;10.72;85.77
41515;BME280;27247;48.020;16.720;2023-01-04T14:49:50;100709.06;;;10.25;86.66
41515;BME280;27247;48.020;16.720;2023-01-04T14:54:00;100693.22;;;10.14;87.07
41515;BME280;27247;48.020;16.720;2023-01-04T14:58:10;100694.00;;;10.06;86.65
41515;BME280;27247;48.020;16.720;2023-01-04T15:02:21;100698.84;;;9.93;86.88
41515;BME280;27247;48.020;16.720;2023-01-04T15:06:33;100702.09;;;9.69;88.37
41515;BME280;27247;48.020;16.720;2023-01-04T15:10:44;100711.28;;;9.84;87.08
41515;BME280;27247;48.020;16.720;2023-01-04T15:14:55;100719.19;;;9.76;87.87
41515;BME280;27247;48.020;16.720;2023-01-04T15:19:05;100702.00;;;9.61;88.18
41515;BME280;27247;48.020;16.720;2023-01-04T15:23:16;100698.88;;;9.28;90.35
41515;BME280;27247;48.020;16.720;2023-01-04T15:27:26;100693.84;;;9.25;90.76
41515;BME280;27247;48.020;16.720;2023-01-04T15:31:36;100699.16;;;9.25;90.89
41515;BME280;27247;48.020;16.720;2023-01-04T15:35:47;100699.41;;;9.42;89.84
41515;BME280;27247;48.020;16.720;2023-01-04T15:39:57;100702.09;;;9.32;89.69
41515;BME280;27247;48.020;16.720;2023-01-04T15:44:08;100685.34;;;9.03;91.85
41515;BME280;27247;48.020;16.720;2023-01-04T15:48:20;100696.75;;;8.85;93.70
41515;BME280;27247;48.020;16.720;2023-01-04T15:52:30;100688.38;;;8.71;95.18
41515;BME280;27247;48.020;16.720;2023-01-04T15:56:41;100684.03;;;8.50;96.84
41515;BME280;27247;48.020;16.720;2023-01-04T16:00:51;100691.28;;;8.19;98.18
41515;BME280;27247;48.020;16.720;2023-01-04T16:05:02;100696.44;;;8.11;99.89
41515;BME280;27247;48.020;16.720;2023-01-04T16:09:13;100695.19;;;8.06;100.00
41515;BME280;27247;48.020;16.720;2023-01-04T16:13:24;100693.91;;;8.00;100.00
41515;BME280;27247;48.020;16.720;2023-01-04T16:17:34;100686.91;;;7.89;100.00
41515;BME280;27247;48.020;16.720;2023-01-04T16:21:44;100673.59;;;7.89;100.00
41515;BME280;27247;48.020;16.720;2023-01-04T16:26:02;100663.78;;;7.80;100.00
41515;BME280;27247;48.020;16.720;2023-01-04T16:30:13;100656.34;;;7.84;100.00
41515;BME280;27247;48.020;16.720;2023-01-04T16:34:24;100639.97;;;7.98;100.00
41515;BME280;27247;48.020;16.720;2023-01-04T16:38:38;100660.28;;;7.89;100.00
41515;BME280;27247;48.020;16.720;2023-01-04T16:42:49;100663.47;;;7.74;100.00
41515;BME280;27247;48.020;16.720;2023-01-04T16:47:00;100658.16;;;7.74;100.00
41515;BME280;27247;48.020;16.720;2023-01-04T16:51:11;100650.16;;;7.64;100.00
41515;BME280;27247;48.020;16.720;2023-01-04T16:55:21;100637.28;;;7.59;100.00
41515;BME280;27247;48.020;16.720;2023-01-04T16:59:32;100632.63;;;7.52;100.00
41515;BME280;27247;48.020;16.720;2023-01-04T17:03:43;100631.38;;;7.46;100.00
41515;BME280;27247;48.020;16.720;2023-01-04T17:07:54;100627.44;;;7.41;100.00
41515;BME280;27247;48.020;16.720;2023-01-04T17:12:05;100614.97;;;7.41;100.00
41515;BME280;27247;48.020;16.720;2023-01-04T17:16:16;100620.28;;;7.31;100.00
41515;BME280;27247;48.020;16.720;2023-01-04T17:20:27;100600.84;;;7.41;100.00
41515;BME280;27247;48.020;16.720;2023-01-04T17:24:37;100589.38;;;7.40;100.00
41515;BME280;27247;48.020;16.720;2023-01-04T17:28:48;100577.47;;;7.44;100.00
41515;BME280;27247;48.020;16.720;2023-01-04T17:32:59;100578.75;;;7.50;100.00
41515;BME280;27247;48.020;16.720;2023-01-04T17:37:09;100568.94;;;7.50;100.00
41515;BME280;27247;48.020;16.720;2023-01-04T17:41:24;100572.16;;;7.54;100.00
41515;BME280;27247;48.020;16.720;2023-01-04T17:45:35;100569.22;;;7.47;100.00
41515;BME280;27247;48.020;16.720;2023-01-04T17:49:45;100559.84;;;7.43;100.00
41515;BME280;27247;48.020;16.720;2023-01-04T17:54:01;100566.00;;;7.44;100.00
41515;BME280;27247;48.020;16.720;2023-01-04T17:58:12;100565.59;;;7.48;100.00
41515;BME280;27247;48.020;16.720;2023-01-04T18:02:22;100565.88;;;7.55;100.00
41515;BME280;27247;48.020;16.720;2023-01-04T18:06:35;100548.81;;;7.57;100.00
41515;BME280;27247;48.020;16.720;2023-01-04T18:10:46;100557.78;;;7.66;100.00
41515;BME280;27247;48.020;16.720;2023-01-04T18:14:57;100563.22;;;7.74;100.00
41515;BME280;27247;48.020;16.720;2023-01-04T18:19:07;100558.75;;;7.65;100.00
41515;BME280;27247;48.020;16.720;2023-01-04T18:23:18;100560.69;;;7.63;100.00
41515;BME280;27247;48.020;16.720;2023-01-04T18:27:28;100539.56;;;7.61;100.00
41515;BME280;27247;48.020;16.720;2023-01-04T18:31:39;100539.97;;;7.57;100.00
41515;BME280;27247;48.020;16.720;2023-01-04T18:35:50;100531.72;;;7.41;100.00
41515;BME280;27247;48.020;16.720;2023-01-04T18:40:02;100540.25;;;7.63;100.00
41515;BME280;27247;48.020;16.720;2023-01-04T18:44:13;100516.88;;;7.57;100.00
41515;BME280;27247;48.020;16.720;2023-01-04T18:48:24;100530.31;;;7.46;100.00
41515;BME280;27247;48.020;16.720;2023-01-04T18:52:36;100499.66;;;7.32;100.00
41515;BME280;27247;48.020;16.720;2023-01-04T18:56:46;100486.66;;;7.39;100.00
41515;BME280;27247;48.020;16.720;2023-01-04T19:01:00;100482.19;;;7.49;100.00
41515;BME280;27247;48.020;16.720;2023-01-04T19:05:11;100469.00;;;7.38;100.00
41515;BME280;27247;48.020;16.720;2023-01-04T19:09:24;100484.69;;;7.41;100.00
41515;BME280;27247;48.020;16.720;2023-01-04T19:13:35;100476.44;;;7.44;100.00
41515;BME280;27247;48.020;16.720;2023-01-04T19:17:47;100461.75;;;7.40;100.00
41515;BME280;27247;48.020;16.720;2023-01-04T19:21:58;100462.31;;;7.34;100.00
41515;BME280;27247;48.020;16.720;2023-01-04T19:26:08;100455.72;;;7.38;100.00
41515;BME280;27247;48.020;16.720;2023-01-04T19:30:20;100461.59;;;7.32;100.00
41515;BME280;27247;48.020;16.720;2023-01-04T19:34:31;100450.09;;;7.22;100.00
41515;BME280;27247;48.020;16.720;2023-01-04T19:38:41;100451.47;;;7.16;100.00
41515;BME280;27247;48.020;16.720;2023-01-04T19:42:52;100454.00;;;7.18;100.00
41515;BME280;27247;48.020;16.720;2023-01-04T19:47:03;100451.78;;;7.23;100.00
41515;BME280;27247;48.020;16.720;2023-01-04T19:51:15;100429.66;;;7.22;100.00
41515;BME280;27247;48.020;16.720;2023-01-04T19:55:26;100428.41;;;7.07;100.00
41515;BME280;27247;48.020;16.720;2023-01-04T19:59:39;100421.41;;;7.25;100.00
41515;BME280;27247;48.020;16.720;2023-01-04T20:03:50;100422.44;;;7.34;100.00
41515;BME280;27247;48.020;16.720;2023-01-04T20:08:00;100435.41;;;7.27;100.00
41515;BME280;27247;48.020;16.720;2023-01-04T20:12:11;100424.38;;;7.32;100.00
41515;BME280;27247;48.020;16.720;2023-01-04T20:16:22;100414.81;;;7.68;100.00
41515;BME280;27247;48.020;16.720;2023-01-04T20:20:33;100409.03;;;7.92;97.47
41515;BME280;27247;48.020;16.720;2023-01-04T20:24:44;100390.78;;;8.07;95.83
41515;BME280;27247;48.020;16.720;2023-01-04T20:28:57;100396.66;;;8.10;95.18
41515;BME280;27247;48.020;16.720;2023-01-04T20:33:08;100397.13;;;7.96;96.07
41515;BME280;27247;48.020;16.720;2023-01-04T20:37:19;100388.09;;;7.60;97.01
41515;BME280;27247;48.020;16.720;2023-01-04T20:41:31;100372.44;;;7.57;96.77
41515;BME280;27247;48.020;16.720;2023-01-04T20:45:44;100370.78;;;7.27;99.88
41515;BME280;27247;48.020;16.720;2023-01-04T20:49:55;100373.31;;;7.38;100.00
41515;BME280;27247;48.020;16.720;2023-01-04T20:54:06;100363.78;;;7.26;100.00
41515;BME280;27247;48.020;16.720;2023-01-04T20:58:17;100358.19;;;7.19;100.00
41515;BME280;27247;48.020;16.720;2023-01-04T21:02:27;100360.69;;;7.21;100.00
41515;BME280;27247;48.020;16.720;2023-01-04T21:06:38;100348.69;;;7.17;100.00
41515;BME280;27247;48.020;16.720;2023-01-04T21:10:50;100352.88;;;7.29;100.00
41515;BME280;27247;48.020;16.720;2023-01-04T21:15:01;100341.13;;;7.31;100.00
41515;BME280;27247;48.020;16.720;2023-01-04T21:19:11;100352.31;;;7.25;100.00
41515;BME280;27247;48.020;16.720;2023-01-04T21:23:25;100343.91;;;7.11;100.00
41515;BME280;27247;48.020;16.720;2023-01-04T21:27:35;100335.97;;;7.01;100.00
41515;BME280;27247;48.020;16.720;2023-01-04T21:31:46;100324.06;;;7.05;100.00
41515;BME280;27247;48.020;16.720;2023-01-04T21:35:56;100308.00;;;6.97;100.00
41515;BME280;27247;48.020;16.720;2023-01-04T21:40:07;100306.75;;;6.91;100.00
41515;BME280;27247;48.020;16.720;2023-01-04T21:44:18;100273.03;;;6.82;100.00
41515;BME280;27247;48.020;16.720;2023-01-04T21:48:28;100289.53;;;6.76;100.00
41515;BME280;27247;48.020;16.720;2023-01-04T21:52:39;100284.94;;;6.59;100.00
41515;BME280;27247;48.020;16.720;2023-01-04T21:56:49;100284.09;;;6.58;100.00
41515;BME280;27247;48.020;16.720;2023-01-04T22:01:00;100291.50;;;6.64;100.00
41515;BME280;27247;48.020;16.720;2023-01-04T22:05:10;100286.63;;;6.69;100.00
41515;BME280;27247;48.020;16.720;2023-01-04T22:09:21;100273.03;;;6.82;100.00
41515;BME280;27247;48.020;16.720;2023-01-04T22:13:31;100276.69;;;6.91;100.00
41515;BME280;27247;48.020;16.720;2023-01-04T22:17:41;100267.31;;;6.87;100.00
41515;BME280;27247;48.020;16.720;2023-01-04T22:21:52;100249.41;;;6.98;100.00
41515;BME280;27247;48.020;16.720;2023-01-04T22:26:02;100256.22;;;7.11;100.00
41515;BME280;27247;48.020;16.720;2023-01-04T22:30:13;100253.56;;;7.11;100.00
41515;BME280;27247;48.020;16.720;2023-01-04T22:34:23;100249.34;;;7.18;100.00
41515;BME280;27247;48.020;16.720;2023-01-04T22:38:35;100257.47;;;7.35;100.00
41515;BME280;27247;48.020;16.720;2023-01-04T22:42:45;100254.78;;;7.35;100.00
41515;BME280;27247;48.020;16.720;2023-01-04T22:46:56;100255.78;;;7.34;100.00
41515;BME280;27247;48.020;16.720;2023-01-04T22:51:08;100248.78;;;7.33;100.00
41515;BME280;27247;48.020;16.720;2023-01-04T22:55:19;100245.44;;;7.31;100.00
41515;BME280;27247;48.020;16.720;2023-01-04T22:59:30;100236.63;;;7.31;100.00
41515;BME280;27247;48.020;16.720;2023-01-04T23:03:40;100231.00;;;7.24;100.00
41515;BME280;27247;48.020;16.720;2023-01-04T23:07:52;100220.81;;;7.20;100.00
41515;BME280;27247;48.020;16.720;2023-01-04T23:12:02;100219.53;;;7.24;100.00
41515;BME280;27247;48.020;16.720;2023-01-04T23:16:14;100214.09;;;7.25;100.00
41515;BME280;27247;48.020;16.720;2023-01-04T23:20:27;100195.63;;;7.24;100.00
41515;BME280;27247;48.020;16.720;2023-01-04T23:24:37;100198.00;;;7.27;100.00
41515;BME280;27247;48.020;16.720;2023-01-04T23:28:49;100207.38;;;7.31;100.00
41515;BME280;27247;48.020;16.720;2023-01-04T23:32:59;100196.47;;;7.34;100.00
41515;BME280;27247;48.020;16.720;2023-01-04T23:37:10;100195.06;;;7.30;100.00
41515;BME280;27247;48.020;16.720;2023-01-04T23:41:20;100192.69;;;7.27;100.00
41515;BME280;27247;48.020;16.720;2023-01-04T23:45:51;100204.59;;;7.23;100.00